Time;durP1;ratioP1;P1;durP2;ratioP2;P2;SDS_P1;SDS_P2;PMS_P1;PMS_P2;Temp;Humidity;BMP_temperature;BMP_pressure;BME280_temperature;BME280_humidity;BME280_pressure;Samples;Min_cycle;Max_cycle;Signal;HPM_P1;HPM_P2
2022/04/19 00:01:00;;;;;;;13.43;6.57;;;6.20;99.90;;;;;;5118687;27;20219;-71
2022/04/19 00:03:29;;;;;;;9.20;5.32;;;6.10;99.90;;;;;;5118601;27;20202;-70
2022/04/19 00:05:59;;;;;;;12.82;7.10;;;6.00;99.90;;;;;;5118731;27;20206;-71
2022/04/19 00:08:26;;;;;;;8.18;5.78;;;6.00;99.90;;;;;;5135900;27;20175;-70
2022/04/19 00:10:52;;;;;;;7.93;5.75;;;6.00;99.90;;;;;;5118072;27;20671;-70
2022/04/19 00:13:20;;;;;;;7.50;5.85;;;6.00;99.90;;;;;;5136786;27;20224;-70
2022/04/19 00:15:51;;;;;;;9.18;6.35;;;6.00;99.90;;;;;;5118135;27;20191;-70
2022/04/19 00:18:19;;;;;;;10.48;6.70;;;6.00;99.90;;;;;;5118133;27;20183;-70
2022/04/19 00:20:45;;;;;;;10.35;6.63;;;5.90;99.90;;;;;;5117906;27;20199;-70
2022/04/19 00:23:15;;;;;;;8.30;6.13;;;5.90;99.90;;;;;;5117752;27;20704;-70
2022/04/19 00:25:43;;;;;;;6.60;5.38;;;5.90;99.90;;;;;;5117802;27;20933;-71
2022/04/19 00:28:10;;;;;;;11.02;5.70;;;5.90;99.90;;;;;;5118083;27;20232;-70
2022/04/19 00:30:43;;;;;;;7.90;5.57;;;5.90;99.90;;;;;;5117694;27;20623;-70
2022/04/19 00:33:09;;;;;;;11.23;6.53;;;6.00;99.90;;;;;;5136239;27;20159;-70
2022/04/19 00:35:37;;;;;;;9.68;5.57;;;6.00;99.90;;;;;;5117640;27;20195;-70
2022/04/19 00:38:07;;;;;;;8.93;6.50;;;6.00;99.90;;;;;;5117618;27;20178;-70
2022/04/19 00:40:35;;;;;;;8.30;5.60;;;6.00;99.90;;;;;;5117574;27;20194;-70
2022/04/19 00:43:02;;;;;;;7.22;4.95;;;6.00;99.90;;;;;;5117060;27;20694;-70
2022/04/19 00:45:34;;;;;;;11.57;6.10;;;6.00;99.90;;;;;;5117258;27;20786;-70
2022/04/19 00:48:10;;;;;;;9.70;6.90;;;6.10;99.90;;;;;;5117840;27;20174;-70
2022/04/19 00:50:37;;;;;;;10.15;6.32;;;6.10;99.90;;;;;;5117697;27;20198;-70
2022/04/19 00:53:05;;;;;;;7.10;5.55;;;6.10;99.90;;;;;;5117450;27;20174;-70
2022/04/19 00:55:34;;;;;;;6.95;5.07;;;6.10;99.90;;;;;;5117172;27;20202;-70
2022/04/19 00:58:01;;;;;;;9.88;6.28;;;6.00;99.90;;;;;;5117381;27;20175;-70
2022/04/19 01:00:27;;;;;;;8.50;6.22;;;6.10;99.90;;;;;;5117361;27;20214;-70
2022/04/19 01:02:54;;;;;;;6.97;6.00;;;6.10;99.90;;;;;;5117519;27;20203;-70
2022/04/19 01:05:20;;;;;;;8.93;5.47;;;6.10;99.90;;;;;;5117905;27;20414;-71
2022/04/19 01:07:47;;;;;;;7.68;6.13;;;6.10;99.90;;;;;;5117215;27;20209;-70
2022/04/19 01:10:13;;;;;;;6.85;5.95;;;6.10;99.90;;;;;;5117151;27;20199;-70
2022/04/19 01:15:29;;;;;;;7.20;5.68;;;6.20;99.90;;;;;;5134240;27;20828;-71
2022/04/19 01:17:57;;;;;;;8.68;5.57;;;6.20;99.90;;;;;;5096467;28;20171;-70
2022/04/19 01:20:24;;;;;;;8.73;6.25;;;6.20;99.90;;;;;;5096805;28;20235;-71
2022/04/19 01:22:55;;;;;;;6.40;5.13;;;6.20;99.90;;;;;;5096291;28;20294;-70
2022/04/19 01:25:22;;;;;;;8.95;6.40;;;6.30;99.90;;;;;;5114530;28;20656;-70
2022/04/19 01:27:55;;;;;;;15.68;6.10;;;6.30;99.90;;;;;;5114844;28;20212;-70
2022/04/19 01:30:23;;;;;;;10.38;6.15;;;6.30;99.90;;;;;;5097125;28;20353;-70
2022/04/19 01:32:48;;;;;;;6.57;4.65;;;6.30;99.90;;;;;;5096922;28;20266;-70
2022/04/19 01:35:25;;;;;;;9.90;5.63;;;6.30;99.90;;;;;;5096902;28;20223;-70
2022/04/19 01:37:57;;;;;;;9.00;6.00;;;6.30;99.90;;;;;;5096567;28;20167;-70
2022/04/19 01:40:23;;;;;;;8.27;6.50;;;6.30;99.90;;;;;;5096302;28;20211;-72
2022/04/19 01:43:09;;;;;;;9.00;6.30;;;6.30;99.90;;;;;;5096167;28;20207;-70
2022/04/19 01:45:42;;;;;;;13.23;5.82;;;6.30;99.90;;;;;;5095911;28;20239;-70
2022/04/19 01:48:08;;;;;;;10.15;6.50;;;6.30;99.90;;;;;;5096199;28;20209;-70
2022/04/19 01:50:38;;;;;;;7.90;5.82;;;6.20;99.90;;;;;;5096323;28;20222;-70
2022/04/19 01:53:14;;;;;;;7.43;5.30;;;6.20;99.90;;;;;;5114481;28;20176;-71
2022/04/19 01:55:42;;;;;;;11.38;6.55;;;6.20;99.90;;;;;;5095763;28;20200;-70
2022/04/19 01:58:09;;;;;;;9.88;5.85;;;6.10;99.90;;;;;;5096165;28;20658;-70
2022/04/19 02:00:35;;;;;;;9.63;6.40;;;6.10;99.90;;;;;;5096022;28;20210;-70
2022/04/19 02:03:07;;;;;;;8.02;5.47;;;6.10;99.90;;;;;;5095655;28;20777;-70
2022/04/19 02:05:37;;;;;;;9.20;5.88;;;6.10;99.90;;;;;;5095929;28;20625;-70
2022/04/19 02:08:04;;;;;;;5.95;5.22;;;6.10;99.90;;;;;;5095969;28;20172;-70
2022/04/19 02:10:31;;;;;;;5.35;4.65;;;6.00;99.90;;;;;;5095736;28;20235;-70
2022/04/19 02:12:58;;;;;;;9.27;6.00;;;6.00;99.90;;;;;;5099541;28;20175;-70
2022/04/19 02:15:27;;;;;;;7.53;5.05;;;6.00;99.90;;;;;;5100025;28;20203;-70
2022/04/19 02:17:53;;;;;;;10.60;6.22;;;5.90;99.90;;;;;;5100362;28;20183;-70
2022/04/19 02:20:20;;;;;;;10.88;6.47;;;5.90;99.90;;;;;;5100061;28;20203;-70
2022/04/19 02:22:51;;;;;;;8.57;6.20;;;5.90;99.90;;;;;;5118282;28;20195;-71
2022/04/19 02:25:26;;;;;;;9.00;6.60;;;5.90;99.90;;;;;;5099701;28;20671;-70
2022/04/19 02:27:56;;;;;;;11.50;7.63;;;5.80;99.90;;;;;;5099955;28;20635;-71
2022/04/19 02:30:22;;;;;;;8.40;6.10;;;5.80;99.90;;;;;;5098039;28;20231;-71
2022/04/19 02:32:51;;;;;;;10.37;5.70;;;5.70;99.90;;;;;;5099732;28;20219;-70
2022/04/19 02:35:20;;;;;;;9.52;6.20;;;5.70;99.90;;;;;;5099774;28;20974;-70
2022/04/19 02:37:52;;;;;;;10.27;5.90;;;5.70;99.90;;;;;;5099550;28;20542;-70
2022/04/19 02:40:19;;;;;;;8.98;7.75;;;5.60;99.90;;;;;;5099629;28;20226;-70
2022/04/19 02:42:48;;;;;;;11.32;6.65;;;5.60;99.90;;;;;;5099279;28;20630;-70
2022/04/19 02:45:20;;;;;;;14.75;7.70;;;5.50;99.90;;;;;;5095917;28;20232;-70
2022/04/19 02:47:46;;;;;;;11.88;6.88;;;5.50;99.90;;;;;;5079133;28;20264;-70
2022/04/19 02:50:19;;;;;;;12.43;7.88;;;5.50;99.90;;;;;;5079166;28;20212;-70
2022/04/19 02:52:47;;;;;;;14.07;8.50;;;5.50;99.90;;;;;;5079510;28;20647;-70
2022/04/19 02:55:14;;;;;;;22.60;12.47;;;5.40;99.90;;;;;;5096003;28;20201;-70
2022/04/19 02:57:41;;;;;;;13.77;7.95;;;5.40;99.90;;;;;;5096358;28;20907;-70
2022/04/19 03:00:07;;;;;;;21.73;10.60;;;5.40;99.90;;;;;;5078952;28;20307;-70
2022/04/19 03:02:46;;;;;;;15.07;9.77;;;5.40;99.90;;;;;;5095838;28;20250;-70
2022/04/19 03:05:12;;;;;;;19.27;7.70;;;5.40;99.90;;;;;;5078881;28;20211;-70
2022/04/19 03:07:39;;;;;;;13.27;8.30;;;5.40;99.90;;;;;;5095950;28;20599;-70
2022/04/19 03:10:06;;;;;;;12.45;7.32;;;5.40;99.90;;;;;;5078678;28;20200;-70
2022/04/19 03:12:39;;;;;;;13.68;8.02;;;5.40;99.90;;;;;;5078582;28;20180;-70
2022/04/19 03:15:11;;;;;;;15.98;7.65;;;5.40;99.90;;;;;;5078417;28;20684;-70
2022/04/19 03:17:41;;;;;;;14.40;8.77;;;5.40;99.90;;;;;;5098595;28;20176;-70
2022/04/19 03:20:11;;;;;;;13.52;7.80;;;5.30;99.90;;;;;;5115727;28;20200;-71
2022/04/19 03:28:10;;;;;;;13.68;7.68;;;5.30;99.90;;;;;;5117179;28;20564;-70
2022/04/19 03:30:40;;;;;;;24.55;11.27;;;5.30;99.90;;;;;;5098573;28;20226;-70
2022/04/19 03:33:06;;;;;;;12.10;9.25;;;5.30;99.90;;;;;;5098490;28;20175;-70
2022/04/19 03:35:36;;;;;;;10.52;7.45;;;5.30;99.90;;;;;;5098011;28;20197;-70
2022/04/19 03:38:06;;;;;;;10.60;7.30;;;5.30;99.90;;;;;;5132642;27;20176;-71
2022/04/19 03:40:33;;;;;;;11.82;7.88;;;5.40;99.90;;;;;;5132713;27;20719;-70
2022/04/19 03:42:59;;;;;;;10.07;7.60;;;5.40;99.90;;;;;;5132307;27;20214;-70
2022/04/19 03:45:25;;;;;;;14.40;7.65;;;5.40;99.90;;;;;;5131971;27;20261;-70
2022/04/19 03:47:52;;;;;;;14.95;7.72;;;5.50;99.90;;;;;;5115217;28;20542;-70
2022/04/19 03:50:25;;;;;;;9.95;7.05;;;5.50;99.90;;;;;;5132565;27;20196;-70
2022/04/19 03:52:54;;;;;;;12.88;6.97;;;5.50;99.90;;;;;;5132431;27;20187;-70
2022/04/19 03:55:23;;;;;;;10.35;6.88;;;5.60;99.90;;;;;;5097939;28;20291;-70
2022/04/19 03:57:49;;;;;;;9.85;7.70;;;5.70;99.90;;;;;;5132194;27;20172;-70
2022/04/19 04:00:21;;;;;;;13.00;7.93;;;5.70;99.90;;;;;;5132003;27;20287;-70
2022/04/19 04:02:48;;;;;;;12.57;7.85;;;5.70;99.90;;;;;;5116022;28;20203;-70
2022/04/19 04:05:18;;;;;;;27.90;13.27;;;5.80;99.90;;;;;;5131936;27;20248;-70
2022/04/19 04:07:45;;;;;;;22.42;12.90;;;5.80;99.90;;;;;;5097767;28;20179;-71
2022/04/19 04:10:11;;;;;;;18.80;13.27;;;5.80;99.90;;;;;;5097970;28;20294;-71
2022/04/19 04:12:36;;;;;;;17.25;9.35;;;5.90;99.90;;;;;;5116025;28;20175;-71
2022/04/19 04:15:04;;;;;;;14.87;8.57;;;5.90;99.90;;;;;;5097500;28;20252;-71
2022/04/19 04:17:32;;;;;;;15.55;9.23;;;5.90;99.90;;;;;;5115775;28;20232;-71
2022/04/19 04:20:02;;;;;;;15.98;7.85;;;5.90;99.90;;;;;;5116048;28;20191;-71
2022/04/19 04:22:29;;;;;;;8.77;6.05;;;6.00;99.90;;;;;;5097365;28;20215;-71
2022/04/19 04:24:56;;;;;;;11.27;7.40;;;6.00;99.90;;;;;;5097311;28;20203;-71
2022/04/19 04:27:28;;;;;;;11.40;7.10;;;6.10;99.90;;;;;;5114613;28;20175;-71
2022/04/19 04:29:55;;;;;;;9.43;6.18;;;6.20;99.90;;;;;;5097298;28;20207;-72
2022/04/19 04:32:20;;;;;;;12.43;7.60;;;6.30;99.90;;;;;;5097575;28;20176;-71
2022/04/19 04:34:46;;;;;;;12.73;7.57;;;6.30;99.90;;;;;;5096948;28;20264;-72
2022/04/19 04:37:18;;;;;;;15.00;7.30;;;6.40;99.90;;;;;;5095154;28;20183;-71
2022/04/19 04:39:50;;;;;;;12.43;7.53;;;6.40;99.90;;;;;;5086382;28;20210;-71
2022/04/19 04:42:16;;;;;;;9.98;7.53;;;6.50;99.90;;;;;;5087683;28;20303;-71
2022/04/19 04:44:47;;;;;;;13.35;7.68;;;6.50;99.90;;;;;;5104686;28;20709;-71
2022/04/19 04:50:03;;;;;;;13.75;8.00;;;6.60;99.90;;;;;;5108596;28;20211;-71
2022/04/19 04:52:29;;;;;;;14.95;9.10;;;6.60;99.90;;;;;;5085322;28;20172;-71
2022/04/19 04:54:55;;;;;;;11.80;7.50;;;6.60;99.90;;;;;;5083904;28;20244;-71
2022/04/19 04:57:21;;;;;;;12.10;7.90;;;6.60;99.90;;;;;;5083672;28;21045;-71
2022/04/19 04:59:48;;;;;;;13.43;8.15;;;6.70;99.90;;;;;;5082311;28;20204;-71
2022/04/19 05:02:14;;;;;;;14.68;8.23;;;6.70;99.90;;;;;;5085660;28;20200;-71
2022/04/19 05:04:40;;;;;;;10.32;7.57;;;6.80;99.90;;;;;;5085449;28;20197;-71
2022/04/19 05:07:06;;;;;;;9.07;7.20;;;6.80;99.90;;;;;;5093355;28;20179;-71
2022/04/19 05:09:32;;;;;;;8.95;6.75;;;6.80;99.90;;;;;;5094981;28;20207;-72
2022/04/19 05:11:58;;;;;;;10.33;6.00;;;6.90;99.90;;;;;;5096409;28;20184;-72
2022/04/19 05:14:24;;;;;;;11.20;7.03;;;7.00;99.90;;;;;;5096418;28;20430;-72
2022/04/19 05:16:56;;;;;;;12.23;6.75;;;7.00;99.90;;;;;;5096355;28;20418;-72
2022/04/19 05:19:25;;;;;;;14.93;8.52;;;7.00;99.90;;;;;;5096663;28;20203;-72
2022/04/19 05:21:51;;;;;;;17.40;8.05;;;7.10;99.90;;;;;;5095993;28;20199;-72
2022/04/19 05:24:19;;;;;;;10.85;7.40;;;7.10;99.90;;;;;;5096265;28;20204;-72
2022/04/19 05:26:46;;;;;;;10.02;6.63;;;7.10;99.90;;;;;;5096431;28;20176;-72
2022/04/19 05:29:12;;;;;;;7.00;6.10;;;7.00;99.90;;;;;;5095824;28;20203;-72
2022/04/19 05:32:01;;;;;;;10.30;7.07;;;7.00;99.90;;;;;;5094886;28;20634;-72
2022/04/19 05:34:37;;;;;;;10.25;6.53;;;7.00;99.90;;;;;;5111354;28;20313;-71
2022/04/19 05:37:08;;;;;;;6.25;5.32;;;7.00;99.90;;;;;;5096102;28;20681;-71
2022/04/19 05:39:40;;;;;;;7.85;5.28;;;7.00;99.90;;;;;;5096123;28;20208;-72
2022/04/19 05:42:07;;;;;;;8.50;5.63;;;7.00;99.90;;;;;;5095591;28;20237;-72
2022/04/19 05:44:33;;;;;;;8.90;5.53;;;7.10;99.90;;;;;;5098806;27;20298;-72
2022/04/19 05:47:02;;;;;;;8.23;4.63;;;7.10;99.90;;;;;;5114150;27;20171;-71
2022/04/19 05:49:31;;;;;;;7.70;5.88;;;7.20;99.90;;;;;;5115572;27;20214;-71
2022/04/19 05:51:58;;;;;;;6.88;5.15;;;7.20;99.90;;;;;;5113871;28;20654;-72
2022/04/19 05:54:25;;;;;;;6.85;4.78;;;7.30;99.90;;;;;;5114505;27;20222;-72
2022/04/19 05:56:53;;;;;;;7.57;4.75;;;7.30;99.90;;;;;;5112675;27;20190;-71
2022/04/19 05:59:18;;;;;;;6.25;5.45;;;7.30;99.90;;;;;;5112903;28;20551;-72
2022/04/19 06:07:15;;;;;;;4.10;3.42;;;7.50;99.90;;;;;;5132585;28;20706;-72
2022/04/19 06:09:43;;;;;;;7.38;4.15;;;7.60;99.90;;;;;;5112565;28;20223;-72
2022/04/19 06:12:10;;;;;;;12.43;5.10;;;7.70;99.90;;;;;;5113599;28;20639;-71
2022/04/19 06:14:40;;;;;;;7.30;4.18;;;7.70;99.90;;;;;;5114702;28;20206;-71
2022/04/19 06:17:06;;;;;;;7.82;5.10;;;7.80;99.90;;;;;;5098677;28;20218;-71
2022/04/19 06:19:32;;;;;;;7.47;4.88;;;7.80;99.90;;;;;;5114481;28;20230;-72
2022/04/19 06:22:02;;;;;;;6.05;4.50;;;7.90;99.90;;;;;;5132798;28;20199;-71
2022/04/19 06:24:28;;;;;;;5.18;4.68;;;8.00;99.90;;;;;;5114949;28;20662;-71
2022/04/19 06:26:55;;;;;;;7.87;3.63;;;8.00;99.90;;;;;;5115788;28;20174;-71
2022/04/19 06:29:21;;;;;;;7.63;5.00;;;8.00;99.90;;;;;;5115833;28;20515;-71
2022/04/19 06:31:49;;;;;;;7.10;4.77;;;8.10;99.90;;;;;;5109429;28;20175;-72
2022/04/19 06:34:19;;;;;;;8.20;5.57;;;8.10;99.90;;;;;;5107284;28;20450;-72
2022/04/19 06:36:46;;;;;;;7.35;4.93;;;8.20;99.90;;;;;;5103714;28;20529;-71
2022/04/19 06:39:46;;;;;;;7.97;5.10;;;8.20;99.90;;;;;;5112425;28;20206;-72
2022/04/19 06:42:12;;;;;;;7.53;4.75;;;8.20;99.90;;;;;;5102208;28;20216;-71
2022/04/19 06:44:41;;;;;;;12.45;5.32;;;8.20;99.90;;;;;;5098907;28;20216;-71
2022/04/19 06:47:08;;;;;;;16.08;7.63;;;8.20;99.90;;;;;;5083611;28;20172;-71
2022/04/19 06:49:34;;;;;;;13.02;6.38;;;8.20;99.90;;;;;;5088370;28;20215;-71
2022/04/19 06:52:05;;;;;;;11.65;6.60;;;8.20;99.90;;;;;;5076910;28;20183;-71
2022/04/19 06:54:31;;;;;;;6.28;5.05;;;8.30;99.90;;;;;;5082879;28;20210;-71
2022/04/19 06:56:57;;;;;;;4.73;4.17;;;8.30;99.90;;;;;;5085995;28;20184;-71
2022/04/19 06:59:24;;;;;;;4.33;3.83;;;8.40;99.70;;;;;;5086360;28;20472;-71
2022/04/19 07:01:50;;;;;;;5.22;4.68;;;8.40;99.50;;;;;;5106768;28;20471;-71
2022/04/19 07:04:16;;;;;;;6.13;4.53;;;8.50;99.60;;;;;;5102977;28;20199;-72
2022/04/19 07:06:49;;;;;;;6.27;4.80;;;8.70;99.50;;;;;;5098211;28;20233;-72
2022/04/19 07:09:55;;;;;;;9.00;4.63;;;8.80;99.10;;;;;;5093589;28;20235;-71
2022/04/19 07:12:42;;;;;;;6.85;4.40;;;9.00;98.40;;;;;;5077488;28;20187;-71
2022/04/19 07:15:11;;;;;;;4.55;4.00;;;9.20;97.90;;;;;;5083710;28;20232;-72
2022/04/19 07:17:43;;;;;;;5.68;3.65;;;9.20;97.70;;;;;;5085540;28;20170;-71
2022/04/19 07:28:27;;;;;;;8.43;4.80;;;9.50;98.30;;;;;;5108176;28;20185;-71
2022/04/19 07:30:53;;;;;;;6.05;4.72;;;9.70;97.20;;;;;;5082684;28;20660;-71
2022/04/19 07:33:20;;;;;;;9.53;4.70;;;9.80;97.30;;;;;;5085393;28;20264;-71
2022/04/19 07:35:47;;;;;;;5.78;3.78;;;10.00;97.90;;;;;;5076992;28;20444;-71
2022/04/19 07:38:13;;;;;;;4.60;4.20;;;10.20;96.70;;;;;;5088698;28;20671;-71
2022/04/19 07:40:42;;;;;;;5.32;4.25;;;10.40;95.80;;;;;;5107962;28;20199;-71
2022/04/19 07:43:14;;;;;;;8.98;4.40;;;10.50;95.80;;;;;;5112261;28;20204;-71
2022/04/19 07:45:47;;;;;;;7.20;5.18;;;10.50;96.10;;;;;;5113212;28;20695;-71
2022/04/19 07:48:15;;;;;;;8.38;4.65;;;10.50;96.20;;;;;;5113582;28;20168;-71
2022/04/19 07:50:47;;;;;;;7.82;5.93;;;10.60;96.30;;;;;;5097671;28;20211;-71
2022/04/19 07:53:14;;;;;;;6.75;5.93;;;10.60;96.60;;;;;;5092645;28;20267;-71
2022/04/19 07:55:40;;;;;;;8.45;4.78;;;10.60;96.80;;;;;;5092358;28;20745;-71
2022/04/19 07:58:06;;;;;;;7.32;5.38;;;10.70;96.80;;;;;;5074071;28;20219;-72
2022/04/19 08:00:36;;;;;;;15.30;9.50;;;10.70;96.90;;;;;;5090747;28;20664;-71
2022/04/19 08:03:03;;;;;;;5.72;3.67;;;10.80;96.40;;;;;;5094435;28;20695;-71
2022/04/19 08:05:30;;;;;;;7.07;4.80;;;10.90;95.50;;;;;;5095982;28;20215;-72
2022/04/19 08:07:58;;;;;;;6.00;5.28;;;10.90;95.30;;;;;;5096402;28;20647;-71
2022/04/19 08:10:26;;;;;;;3.78;3.33;;;10.90;94.90;;;;;;5107748;28;20199;-70
2022/04/19 08:12:52;;;;;;;6.65;5.18;;;10.80;94.80;;;;;;5110946;28;20172;-71
2022/04/19 08:15:19;;;;;;;6.18;4.88;;;10.80;94.90;;;;;;5090014;28;20286;-70
2022/04/19 08:17:48;;;;;;;6.32;3.53;;;10.80;95.10;;;;;;5106403;27;20636;-70
2022/04/19 08:20:14;;;;;;;4.75;3.78;;;10.80;95.10;;;;;;5080061;28;20208;-71
2022/04/19 08:22:42;;;;;;;5.80;5.22;;;10.80;95.30;;;;;;5101956;28;20231;-71
2022/04/19 08:25:11;;;;;;;3.60;3.08;;;11.00;95.00;;;;;;5113963;28;20204;-72
2022/04/19 08:27:48;;;;;;;5.68;5.15;;;11.00;94.20;;;;;;5113917;28;20624;-73
2022/04/19 08:30:19;;;;;;;8.05;4.80;;;11.10;94.20;;;;;;5113747;28;20639;-70
2022/04/19 08:32:54;;;;;;;6.38;4.68;;;11.20;94.00;;;;;;5115328;28;20213;-70
2022/04/19 08:35:31;;;;;;;6.70;5.15;;;11.30;94.60;;;;;;5113023;28;20203;-70
2022/04/19 08:37:58;;;;;;;5.63;5.00;;;11.50;94.10;;;;;;5101194;27;20195;-71
2022/04/19 08:40:27;;;;;;;5.50;5.00;;;11.70;93.60;;;;;;5101845;27;20208;-73
2022/04/19 08:42:56;;;;;;;1.52;1.42;;;11.90;93.30;;;;;;5098988;28;20204;-72
2022/04/19 08:45:26;;;;;;;6.70;5.32;;;11.90;92.90;;;;;;5095346;28;20711;-73
2022/04/19 08:48:00;;;;;;;5.40;4.78;;;11.80;92.60;;;;;;5113549;28;20480;-73
2022/04/19 08:50:28;;;;;;;6.88;6.13;;;11.80;92.70;;;;;;5130084;27;20724;-73
2022/04/19 08:58:28;;;;;;;9.15;6.40;;;12.10;93.00;;;;;;5058971;28;20166;-72
2022/04/19 09:00:55;;;;;;;5.55;3.67;;;12.30;92.90;;;;;;5011954;28;20294;-73
2022/04/19 09:03:23;;;;;;;7.70;5.15;;;12.40;92.60;;;;;;5011694;28;20214;-72
2022/04/19 09:05:53;;;;;;;8.45;5.97;;;12.50;92.80;;;;;;5011930;28;20576;-73
2022/04/19 09:08:20;;;;;;;9.00;6.68;;;12.90;92.70;;;;;;5009272;28;20231;-73
2022/04/19 09:11:05;;;;;;;7.67;6.10;;;13.20;92.90;;;;;;5004251;28;20283;-72
2022/04/19 09:13:35;;;;;;;6.55;5.10;;;13.50;92.10;;;;;;5035951;28;20428;-73
2022/04/19 09:16:05;;;;;;;3.40;3.10;;;13.60;92.10;;;;;;5031033;28;20198;-73
2022/04/19 09:18:34;;;;;;;7.33;5.10;;;13.70;91.60;;;;;;5012744;28;20454;-73
2022/04/19 09:21:02;;;;;;;6.17;5.57;;;13.70;91.60;;;;;;5013139;28;20478;-72
2022/04/19 09:23:33;;;;;;;7.00;5.47;;;13.60;91.50;;;;;;5030531;28;20424;-73
2022/04/19 09:26:08;;;;;;;6.57;5.50;;;13.40;91.90;;;;;;5012169;28;20454;-73
2022/04/19 09:28:35;;;;;;;131.90;50.00;;;13.40;91.80;;;;;;5010053;28;20423;-72
2022/04/19 09:31:11;;;;;;;6.90;5.97;;;13.30;91.90;;;;;;5010079;28;20516;-73
2022/04/19 09:33:37;;;;;;;6.93;5.30;;;13.20;91.70;;;;;;5093631;28;20518;-73
2022/04/19 09:36:13;;;;;;;7.73;5.47;;;13.10;91.90;;;;;;5050518;27;20502;-72
2022/04/19 09:38:46;;;;;;;7.03;6.10;;;12.90;92.30;;;;;;5031832;28;20773;-70
2022/04/19 09:41:34;;;;;;;7.10;5.73;;;12.80;92.30;;;;;;5022213;28;20210;-72
2022/04/19 09:44:07;;;;;;;26.00;13.38;;;12.60;92.60;;;;;;5014287;28;20432;-73
2022/04/19 09:46:36;;;;;;;34.80;17.08;;;12.40;92.70;;;;;;5011042;28;20223;-72
2022/04/19 09:49:06;;;;;;;7.97;6.10;;;12.30;93.20;;;;;;5006929;28;20628;-71
2022/04/19 09:51:34;;;;;;;45.17;22.25;;;12.30;94.40;;;;;;5033441;27;20175;-70
2022/04/19 09:54:03;;;;;;;11.63;7.05;;;12.20;95.10;;;;;;5008402;28;20181;-72
2022/04/19 09:56:39;;;;;;;9.98;7.85;;;12.10;97.10;;;;;;5034572;27;20183;-70
2022/04/19 09:59:23;;;;;;;8.98;7.90;;;12.00;99.00;;;;;;5033713;28;20216;-68
2022/04/19 10:10:19;;;;;;;15.43;8.02;;;11.20;99.90;;;;;;5035911;28;20290;-71
2022/04/19 10:12:46;;;;;;;10.63;8.05;;;11.00;99.90;;;;;;5062763;28;20261;-70
2022/04/19 10:15:12;;;;;;;9.43;8.25;;;10.80;99.90;;;;;;5118217;28;20266;-72
2022/04/19 10:17:38;;;;;;;56.78;25.30;;;10.60;99.90;;;;;;5011135;28;20610;-72
2022/04/19 10:20:05;;;;;;;8.40;7.32;;;10.40;99.90;;;;;;5013992;28;20230;-71
2022/04/19 10:22:32;;;;;;;12.20;7.82;;;10.30;99.90;;;;;;5039374;28;20608;-68
2022/04/19 10:25:10;;;;;;;9.90;7.43;;;10.30;99.90;;;;;;5087866;28;20206;-68
2022/04/19 10:27:37;;;;;;;9.75;7.28;;;10.20;99.90;;;;;;5034940;28;20188;-68
2022/04/19 10:30:04;;;;;;;7.57;6.63;;;10.20;99.90;;;;;;5010088;28;20245;-69
2022/04/19 10:32:35;;;;;;;10.15;8.68;;;10.10;99.90;;;;;;5023199;28;20215;-69
2022/04/19 10:35:13;;;;;;;10.48;7.95;;;10.00;99.90;;;;;;5051426;28;20806;-68
2022/04/19 10:37:44;;;;;;;10.63;8.52;;;10.00;99.90;;;;;;5029480;27;20183;-69
2022/04/19 10:40:12;;;;;;;7.85;6.57;;;9.90;99.90;;;;;;5021970;28;20714;-69
2022/04/19 10:42:40;;;;;;;7.85;7.05;;;9.80;99.90;;;;;;5055862;27;20635;-69
2022/04/19 10:45:28;;;;;;;17.38;13.70;;;9.90;99.90;;;;;;5045730;28;20241;-70
2022/04/19 10:47:54;;;;;;;9.13;7.57;;;9.90;99.90;;;;;;5083520;27;20187;-69
2022/04/19 10:50:33;;;;;;;9.50;6.57;;;10.10;99.90;;;;;;5032414;28;20259;-70
2022/04/19 10:53:03;;;;;;;8.85;7.03;;;10.10;99.90;;;;;;5015375;28;20574;-69
2022/04/19 10:55:40;;;;;;;9.32;8.30;;;10.30;99.90;;;;;;5016745;28;20259;-69
2022/04/19 10:58:09;;;;;;;11.38;7.32;;;10.40;99.90;;;;;;5033565;28;20192;-70
2022/04/19 11:00:35;;;;;;;8.75;6.93;;;10.50;99.90;;;;;;5015114;28;20202;-70
2022/04/19 11:03:14;;;;;;;6.80;5.43;;;10.60;99.90;;;;;;5014351;28;20203;-69
2022/04/19 11:06:14;;;;;;;5.82;4.57;;;10.70;99.90;;;;;;5013562;28;20231;-69
2022/04/19 11:08:49;;;;;;;6.30;4.78;;;10.80;99.90;;;;;;5013101;28;20190;-69
2022/04/19 11:11:21;;;;;;;9.60;6.47;;;10.80;99.90;;;;;;5046575;28;20179;-69
2022/04/19 11:14:26;;;;;;;9.30;6.65;;;10.70;99.90;;;;;;5007527;28;20190;-69
2022/04/19 11:17:16;;;;;;;6.25;3.30;;;10.70;99.90;;;;;;4999867;28;20694;-68
2022/04/19 11:19:51;;;;;;;5.18;3.95;;;10.60;99.90;;;;;;5006776;28;20310;-69
2022/04/19 11:22:46;;;;;;;7.35;5.55;;;10.50;99.90;;;;;;4983459;28;20202;-70
2022/04/19 11:25:12;;;;;;;6.82;6.03;;;10.50;99.90;;;;;;5002325;28;20217;-69
2022/04/19 11:27:53;;;;;;;8.02;6.18;;;10.50;99.90;;;;;;5010520;28;20651;-69
2022/04/19 11:30:28;;;;;;;8.68;5.85;;;10.50;99.90;;;;;;5009653;28;20210;-69
2022/04/19 11:33:01;;;;;;;10.00;5.07;;;10.50;99.90;;;;;;5009496;28;20268;-69
2022/04/19 11:35:31;;;;;;;5.40;4.90;;;10.40;99.90;;;;;;5025591;28;20229;-69
2022/04/19 11:38:02;;;;;;;5.57;4.60;;;10.40;99.90;;;;;;5042411;27;20179;-69
2022/04/19 11:48:51;;;;;;;4.22;3.83;;;10.30;99.90;;;;;;5026525;28;20238;-70
2022/04/19 11:51:22;;;;;;;6.13;5.53;;;10.30;99.90;;;;;;5003259;28;20178;-69
2022/04/19 11:53:50;;;;;;;8.75;5.97;;;10.40;99.90;;;;;;5024746;28;20173;-70
2022/04/19 11:56:26;;;;;;;8.02;6.13;;;10.30;99.90;;;;;;5022395;28;20695;-70
2022/04/19 11:59:05;;;;;;;7.25;6.43;;;10.30;99.90;;;;;;5018434;28;20189;-69
2022/04/19 12:01:34;;;;;;;9.07;6.43;;;10.30;99.90;;;;;;5024033;28;20270;-70
2022/04/19 12:04:12;;;;;;;6.88;5.93;;;10.40;99.90;;;;;;5004656;28;20183;-70
2022/04/19 12:06:38;;;;;;;5.95;5.32;;;10.40;99.90;;;;;;4994675;28;20175;-70
2022/04/19 12:09:07;;;;;;;7.55;6.05;;;10.30;99.90;;;;;;5000102;28;20282;-70
2022/04/19 12:11:46;;;;;;;6.70;5.03;;;10.20;99.90;;;;;;5028062;27;20654;-69
2022/04/19 12:14:30;;;;;;;8.23;5.53;;;10.20;99.90;;;;;;5019626;28;20258;-70
2022/04/19 12:17:10;;;;;;;10.73;8.15;;;10.10;99.90;;;;;;5014647;28;20222;-70
2022/04/19 12:19:44;;;;;;;13.38;8.70;;;10.10;99.90;;;;;;5014291;28;20210;-69
2022/04/19 12:22:21;;;;;;;8.40;7.15;;;10.10;99.90;;;;;;5014183;28;20687;-70
2022/04/19 12:24:58;;;;;;;6.28;5.47;;;10.10;99.90;;;;;;5013492;28;20258;-70
2022/04/19 12:27:37;;;;;;;5.43;4.93;;;10.00;99.90;;;;;;5013080;28;20538;-70
2022/04/19 12:30:08;;;;;;;6.63;5.85;;;10.00;99.90;;;;;;5013885;28;20650;-69
2022/04/19 12:32:59;;;;;;;6.03;5.43;;;10.00;99.90;;;;;;5009625;28;20186;-69
2022/04/19 12:35:34;;;;;;;7.45;6.72;;;10.10;99.90;;;;;;5003684;28;20211;-67
2022/04/19 12:38:13;;;;;;;7.57;5.80;;;10.10;99.90;;;;;;5012045;28;20270;-68
2022/04/19 12:40:40;;;;;;;7.22;6.50;;;10.10;99.90;;;;;;5004626;28;20214;-69
2022/04/19 12:43:11;;;;;;;6.90;5.88;;;10.10;99.90;;;;;;5039728;27;20250;-69
2022/04/19 12:45:38;;;;;;;6.82;5.70;;;10.10;99.90;;;;;;5027733;27;20521;-68
2022/04/19 12:48:07;;;;;;;8.95;6.78;;;10.00;99.90;;;;;;5106311;27;20659;-70
2022/04/19 12:50:34;;;;;;;8.55;7.00;;;10.00;99.90;;;;;;4993101;27;20212;-69
2022/04/19 12:53:20;;;;;;;9.68;7.18;;;9.90;99.90;;;;;;5029399;27;20512;-69
2022/04/19 12:55:48;;;;;;;6.78;6.00;;;10.00;99.90;;;;;;5081966;27;20243;-69
2022/04/19 12:58:20;;;;;;;7.25;6.55;;;10.10;99.90;;;;;;5063364;27;20267;-69
2022/04/19 13:00:46;;;;;;;5.85;4.95;;;10.10;99.90;;;;;;4994440;28;20207;-68
2022/04/19 13:03:16;;;;;;;5.70;5.00;;;10.10;99.90;;;;;;5009714;28;20546;-69
2022/04/19 13:14:13;;;;;;;6.30;4.18;;;10.30;99.90;;;;;;5054918;27;20206;-69
2022/04/19 13:16:39;;;;;;;5.85;5.00;;;10.40;99.90;;;;;;5115754;27;20179;-69
2022/04/19 13:19:10;;;;;;;8.43;7.45;;;10.40;99.90;;;;;;5115336;27;20667;-69
2022/04/19 13:21:39;;;;;;;6.68;5.82;;;10.40;99.90;;;;;;5066871;27;20263;-71
2022/04/19 13:24:08;;;;;;;6.65;5.85;;;10.40;99.90;;;;;;5011587;28;20190;-69
2022/04/19 13:26:35;;;;;;;6.03;5.38;;;10.40;99.90;;;;;;5014546;27;20258;-70
2022/04/19 13:29:05;;;;;;;6.35;5.75;;;10.50;99.90;;;;;;5008962;28;20217;-69
2022/04/19 13:31:38;;;;;;;6.72;5.13;;;10.70;99.90;;;;;;5006541;28;20266;-69
2022/04/19 13:34:05;;;;;;;7.80;5.22;;;10.80;99.90;;;;;;5007774;28;20681;-69
2022/04/19 13:36:31;;;;;;;21.13;12.75;;;10.90;99.90;;;;;;5003135;28;20668;-69
2022/04/19 13:38:57;;;;;;;9.70;7.50;;;10.90;99.90;;;;;;5011376;28;20213;-69
2022/04/19 13:41:25;;;;;;;5.43;4.53;;;11.00;99.90;;;;;;5011010;28;20174;-68
2022/04/19 13:43:52;;;;;;;7.72;6.50;;;11.10;99.90;;;;;;5003100;28;20420;-70
2022/04/19 13:46:19;;;;;;;11.40;9.07;;;11.30;99.90;;;;;;5049707;28;20194;-69
2022/04/19 13:48:45;;;;;;;5.63;5.00;;;11.40;99.90;;;;;;5007779;28;20423;-69
2022/04/19 13:51:22;;;;;;;5.50;4.30;;;11.40;99.90;;;;;;5027912;28;20205;-69
2022/04/19 13:54:05;;;;;;;5.82;4.80;;;11.50;99.90;;;;;;5015340;28;20431;-69
2022/04/19 13:56:35;;;;;;;5.05;4.55;;;11.60;99.90;;;;;;5094559;28;20652;-69
2022/04/19 13:59:05;;;;;;;5.93;4.70;;;11.70;99.90;;;;;;5112371;28;20186;-69